• Join FlightAware (Why Join?)
  • Login
  • US Flag 
05:09AM EDT


 

Airport Tracker/Info


-or-


 

Live Flight TrackerFlight Track Log ✈ N430WC ✈ 15-Oct-2013 ✈ KIAD - KMSN

Flight Track Log - Related Links

Times and Time Zones

All times are in EDT time to prevent confusion due to time zone crossing. See the N430WC flight status page for this flight to view local times or setup timezone preferences in your user account.

Time Position Orientation Groundspeed Altitude Reporting Facility
EDT Latitude Longitude Course Direction KTS MPH feet Rate Location/Type
09:10AM 38.9500 -77.5167 336° Northwest 210 242 1,900  Level Potomac TRACON
09:11AM 39.0575 -77.5778 336° Northwest 257 296 6,300 2,820 Climbing Washington Center
09:12AM 39.1322 -77.5931 351° North 262 302 9,800 3,360 Climbing Washington Center
09:13AM 39.2197 -77.6089 352° North 289 333 13,100 3,000 Climbing Washington Center
09:14AM 39.3217 -77.6064 North 313 360 15,800 1,920 Climbing Washington Center
09:15AM 39.4197 -77.6036 North 334 384 17,000 600 Climbing Washington Center
09:16AM 39.4914 -77.6783 321° Northwest 328 377 17,100 1,080 Climbing Washington Center
09:17AM 39.5206 -77.8028 287° West 316 364 19,200 2,400 Climbing Washington Center
09:19AM 39.5967 -78.0531 292° West 388 447 24,000 2,520 Climbing Cleveland Center
09:20AM 39.6386 -78.1953 291° West 414 476 26,500 2,280 Climbing Cleveland Center
09:21AM 39.6803 -78.3386 291° West 422 486 28,800 2,220 Climbing Cleveland Center
09:22AM 39.7231 -78.4847 291° West 431 496 31,100 2,160 Climbing Cleveland Center
09:23AM 39.7658 -78.6286 291° West 430 495 33,300 2,040 Climbing Cleveland Center
09:24AM 39.8092 -78.7847 290° West 423 487 35,400 1,740 Climbing Cleveland Center
09:25AM 39.8508 -78.9272 291° West 422 486 36,900 1,680 Climbing Cleveland Center
09:26AM 39.8903 -79.0642 291° West 411 473 38,900 1,500 Climbing Cleveland Center
09:27AM 39.9364 -79.2247 291° West 396 456 40,000 780 Climbing Cleveland Center
09:28AM 39.9742 -79.3553 291° West 389 448 40,600 1,020 Climbing Cleveland Center
09:29AM 40.0297 -79.4656 303° West 370 426 42,100 1,140 Climbing Cleveland Center
09:31AM 40.0831 -79.5708 304° West 349 402 43,000 420 Climbing Cleveland Center
09:32AM 40.1383 -79.6789 304° West 356 410 43,000  Level Cleveland Center
09:33AM 40.1961 -79.7894 304° West 366 421 43,000  Level Cleveland Center
09:34AM 40.2631 -79.9219 304° West 365 420 43,000  Level Cleveland Center
09:35AM 40.3175 -80.0311 303° West 361 415 43,000  Level Cleveland Center
09:36AM 40.3747 -80.1422 304° West 366 421 43,000  Level Cleveland Center
09:37AM 40.4292 -80.2506 303° West 361 415 43,000  Level Cleveland Center
09:38AM 40.4819 -80.3586 303° West 359 413 43,000  Level Cleveland Center
09:39AM 40.5481 -80.4900 304° West 365 420 43,000  Level Cleveland Center
09:40AM 40.6044 -80.5994 304° West 361 415 43,000  Level Cleveland Center
09:41AM 40.6575 -80.7094 302° West 355 409 43,000  Level Cleveland Center
09:42AM 40.7117 -80.8211 303° West 358 412 43,000  Level Cleveland Center
09:43AM 40.7664 -80.9308 303° West 355 409 43,000  Level Cleveland Center
09:44AM 40.8211 -81.0419 303° West 356 410 43,000  Level Cleveland Center
09:45AM 40.8753 -81.1531 303° West 356 410 43,000  Level Cleveland Center
09:46AM 40.9294 -81.2633 303° West 355 409 43,000  Level Cleveland Center
09:47AM 40.9775 -81.3803 299° West 357 411 43,000 240 Level Cleveland Center
09:48AM 41.0261 -81.5208 295° West 356 410 43,500 480 Climbing Cleveland Center
09:49AM 41.0672 -81.6406 295° West 352 405 44,100 480 Climbing Cleveland Center
09:50AM 41.1094 -81.7622 295° West 355 409 44,500 300 Climbing Cleveland Center
09:51AM 41.1525 -81.8867 295° West 362 417 44,800 240 Climbing Cleveland Center
09:52AM 41.1961 -82.0119 295° West 367 422 45,000 60 Climbing Cleveland Center
09:53AM 41.2403 -82.1397 295° West 374 430 45,000  Level Cleveland Center
09:54AM 41.2853 -82.2731 294° West 385 443 45,000  Level Cleveland Center
09:55AM 41.3311 -82.4067 295° West 392 451 45,000  Level Cleveland Center
09:56AM 41.3772 -82.5406 295° West 395 455 45,000  Level Cleveland Center
09:57AM 41.4233 -82.6775 294° West 399 459 45,000  Level Cleveland Center
09:58AM 41.4689 -82.8131 294° West 398 458 45,000  Level Cleveland Center
09:59AM 41.5139 -82.9489 294° West 398 458 45,000  Level Cleveland Center
10:00AM 41.5672 -83.1089 294° West 402 463 45,000  Level Cleveland Center
10:01AM 41.6050 -83.2272 293° West 401 461 45,000  Level Cleveland Center
10:02AM 41.6494 -83.3644 293° West 403 464 45,000  Level Cleveland Center
10:03AM 41.7033 -83.5300 294° West 405 466 45,000  Level Cleveland Center
10:05AM 41.7483 -83.6700 293° West 407 468 45,000  Level Cleveland Center
10:06AM 41.7925 -83.8092 293° West 406 467 45,000  Level Cleveland Center
10:07AM 41.8386 -83.9503 294° West 411 473 45,000  Level Cleveland Center
10:08AM 41.8842 -84.0894 294° West 407 468 45,000  Level Cleveland Center
10:09AM 41.9283 -84.2286 293° West 406 467 45,000  Level Cleveland Center
10:10AM 41.9781 -84.3822 294° West 408 470 45,000  Level Cleveland Center
10:11AM 42.0217 -84.5214 293° West 406 467 45,000  Level Cleveland Center
10:12AM 42.0661 -84.6619 293° West 411 473 45,000  Level Cleveland Center
10:13AM 42.1097 -84.8017 293° West 409 471 45,000  Level Cleveland Center
10:14AM 42.1611 -84.9692 293° West 408 470 45,000  Level Cleveland Center
10:15AM 42.2042 -85.1075 293° West 404 465 45,000  Level Cleveland Center
10:16AM 42.2394 -85.2292 291° West 404 465 45,000  Level Chicago Center
10:17AM 42.2908 -85.3983 292° West 407 468 45,000 -120 Level Chicago Center
10:18AM 42.3339 -85.5408 292° West 411 473 44,800 -780 Descending Chicago Center
10:19AM 42.3747 -85.6794 292° West 403 464 43,400 -1,440 Descending Chicago Center
10:20AM 42.4158 -85.8139 293° West 390 449 41,900 -1,380 Descending Chicago Center
10:21AM 42.4550 -85.9439 292° West 377 434 40,600 -1,320 Descending Chicago Center
10:22AM 42.4936 -86.0797 291° West 385 443 39,200 -1,320 Descending Chicago Center
10:23AM 42.5336 -86.2139 292° West 381 438 37,900 -1,500 Descending Chicago Center
10:24AM 42.5817 -86.3811 291° West 393 452 36,200 -1,500 Descending Chicago Center
10:25AM 42.6225 -86.5217 292° West 397 457 34,800 -1,440 Descending Chicago Center
10:26AM 42.6642 -86.6653 292° West 403 464 33,300 -1,380 Descending Chicago Center
10:27AM 42.7047 -86.8089 291° West 405 466 32,000 -660 Descending Chicago Center
10:28AM 42.7472 -86.9575 291° West 417 480 32,000  Level Chicago Center
10:29AM 42.7914 -87.1075 292° West 424 488 32,000 -600 Level Chicago Center
10:30AM 42.8344 -87.2592 291° West 428 493 30,800 -1,680 Descending Chicago Center
10:31AM 42.8825 -87.4303 291° West 425 489 28,600 -2,040 Descending Chicago Center
10:32AM 42.9236 -87.5800 291° West 422 486 26,600 -1,980 Descending Chicago Center
10:33AM 42.9639 -87.7236 291° West 410 472 24,600 -1,980 Descending Chicago Center
10:34AM 42.9947 -87.8706 286° West 407 468 22,600 -2,160 Descending Chicago Center
10:35AM 42.9794 -88.0389 263° West 377 434 20,200 -1,260 Descending Chicago Center
10:36AM 42.9964 -88.1758 280° West 387 445 20,000 -600 Descending Chicago Center
10:38AM 43.0700 -88.2933 311° West 404 465 19,000 -1,740 Descending Chicago Center
10:39AM 43.1153 -88.4211 296° West 370 426 16,500 -2,400 Descending Chicago Center
10:40AM 43.1192 -88.5561 272° West 354 407 14,100 -1,440 Descending Chicago Center
10:41AM 43.1225 -88.6850 272° West 344 396 13,600 -1,020 Descending Chicago Center
10:42AM 43.1481 -88.8006 287° West 362 417 12,100 -1,500 Descending Chicago Center
10:43AM 43.2056 -88.9000 308° West 340 391 10,600 -1,800 Descending Chicago Center
10:44AM 43.2700 -89.0006 311° West 302 348 8,400 -2,040 Descending Chicago Center
10:45AM 43.3047 -89.0842 300° West 279 321 6,400 -2,040 Descending Chicago Center
10:46AM 43.3136 -89.1742 278° West 254 292 4,200 -1,680 Descending Chicago Center
10:47AM 43.3208 -89.2606 277° West 239 275 3,000 -540 Descending Chicago Center
10:48AM 43.3103 -89.3200 256° West 201 231 3,100  Climbing Chicago Center
10:49AM 43.2783 -89.3367 201° Southwest 151 174 3,000 -240 Descending Chicago Center
10:50AM 43.2367 -89.3397 183° South 132 152 2,700 -420 Descending Chicago Center
10:51AM 43.2086 -89.3397 180° South 118 136 2,200 -540 Descending Chicago Center
10:52AM 43.1814 -89.3403 181° South 107 123 1,600 -540 Descending Chicago Center
10:53AM 43.1483 -89.3422 182° South 106 122 1,200 -420 Descending Chicago Center